Time;durP1;ratioP1;P1;durP2;ratioP2;P2;SDS_P1;SDS_P2;PMS_P1;PMS_P2;Temp;Humidity;BMP_temperature;BMP_pressure;BME280_temperature;BME280_humidity;BME280_pressure;Samples;Min_cycle;Max_cycle;Signal;HPM_P1;HPM_P2
2023/12/12 00:00:49;;;;;;;;;;;;;;;;;;2207353;59;1823;-78
2023/12/12 00:03:19;;;;;;;;;;;;;;;;;;2210525;59;2073;-78
2023/12/12 00:05:50;;;;;;;;;;;;;;;;;;2209422;59;2349;-79
2023/12/12 00:08:21;;;;;;;;;;;;;;;;;;2210682;59;1984;-78
2023/12/12 00:10:57;;;;;;;;;;;;;;;;;;2208778;59;2346;-78
2023/12/12 00:13:32;;;;;;;;;;;;;;;;;;2210179;59;2036;-78
2023/12/12 00:16:03;;;;;;;;;;;;;;;;;;2210264;59;1690;-78
2023/12/12 00:18:34;;;;;;;;;;;;;;;;;;2209695;59;2114;-78
2023/12/12 00:21:05;;;;;;;;;;;;;;;;;;2209735;59;1449;-78
2023/12/12 00:23:41;;;;;;;;;;;;;;;;;;2209491;59;2057;-78
2023/12/12 00:26:12;;;;;;;;;;;;;;;;;;2210435;59;1841;-78
2023/12/12 00:28:43;;;;;;;;;;;;;;;;;;2208754;59;1987;-78
2023/12/12 00:31:27;;;;;;;;;;;;;;;;;;2211461;59;2225;-80
2023/12/12 00:33:58;;;;;;;;;;;;;;;;;;2208993;59;2210;-78
2023/12/12 00:36:34;;;;;;;;;;;;;;;;;;2213049;59;2637;-78
2023/12/12 00:39:06;;;;;;;;;;;;;;;;;;2212872;59;1716;-78
2023/12/12 00:41:36;;;;;;;;;;;;;;;;;;2212900;59;1937;-78
2023/12/12 00:44:06;;;;;;;;;;;;;;;;;;2210326;59;1601;-78
2023/12/12 00:46:41;;;;;;;;;;;;;;;;;;2209817;59;1957;-78
2023/12/12 00:49:17;;;;;;;;;;;;;;;;;;2210507;59;2399;-78
2023/12/12 00:51:58;;;;;;;;;;;;;;;;;;2208849;59;1947;-79
2023/12/12 00:54:30;;;;;;;;;;;;;;;;;;2209469;59;1755;-81
2023/12/12 00:57:00;;;;;;;;;;;;;;;;;;2209665;59;2018;-82
2023/12/12 00:59:31;;;;;;;;;;;;;;;;;;2210396;59;1729;-78
2023/12/12 01:02:05;;;;;;;;;;;;;;;;;;2209604;67;2166;-78
2023/12/12 01:04:38;;;;;;;;;;;;;;;;;;2209024;59;2000;-78
2023/12/12 01:07:32;;;;;;;;;;;;;;;;;;2210346;59;2225;-78
2023/12/12 01:10:02;;;;;;;;;;;;;;;;;;2207255;59;2691;-78
2023/12/12 01:12:33;;;;;;;;;;;;;;;;;;2209188;59;2395;-77
2023/12/12 01:15:04;;;;;;;;;;;;;;;;;;2208878;59;2271;-78
2023/12/12 01:17:34;;;;;;;;;;;;;;;;;;2209295;59;1736;-78
2023/12/12 01:20:07;;;;;;;;;;;;;;;;;;2213958;59;2204;-78
2023/12/12 01:22:41;;;;;;;;;;;;;;;;;;2208206;59;1968;-78
2023/12/12 01:25:11;;;;;;;;;;;;;;;;;;2211899;59;2010;-78
2023/12/12 01:27:41;;;;;;;;;;;;;;;;;;2208560;59;2145;-78
2023/12/12 01:30:12;;;;;;;;;;;;;;;;;;2209137;59;2155;-78
2023/12/12 01:32:43;;;;;;;;;;;;;;;;;;2208883;59;2168;-78
2023/12/12 01:35:19;;;;;;;;;;;;;;;;;;2210202;59;2045;-78
2023/12/12 01:37:55;;;;;;;;;;;;;;;;;;2208159;59;1848;-78
2023/12/12 01:40:28;;;;;;;;;;;;;;;;;;2209711;59;1990;-78
2023/12/12 01:43:06;;;;;;;;;;;;;;;;;;2208616;59;1996;-78
2023/12/12 01:45:37;;;;;;;;;;;;;;;;;;2209268;59;1951;-78
2023/12/12 01:48:20;;;;;;;;;;;;;;;;;;2209580;59;2369;-79
2023/12/12 01:50:54;;;;;;;;;;;;;;;;;;2208927;59;1837;-78
2023/12/12 01:53:30;;;;;;;;;;;;;;;;;;2210459;59;2162;-78
2023/12/12 01:56:05;;;;;;;;;;;;;;;;;;2210278;59;2170;-78
2023/12/12 01:58:36;;;;;;;;;;;;;;;;;;2212153;59;2352;-78
2023/12/12 02:01:07;;;;;;;;;;;;;;;;;;2209597;67;1622;-78
2023/12/12 02:03:39;;;;;;;;;;;;;;;;;;2208892;59;1848;-78
2023/12/12 02:06:11;;;;;;;;;;;;;;;;;;2210508;59;2251;-78
2023/12/12 02:08:44;;;;;;;;;;;;;;;;;;2208551;59;2064;-78
2023/12/12 02:11:16;;;;;;;;;;;;;;;;;;2210015;59;2095;-78
2023/12/12 02:13:50;;;;;;;;;;;;;;;;;;2208278;59;2352;-78
2023/12/12 02:16:38;;;;;;;;;;;;;;;;;;2212572;59;2061;-78
2023/12/12 02:19:12;;;;;;;;;;;;;;;;;;2209344;59;2049;-79
2023/12/12 02:21:42;;;;;;;;;;;;;;;;;;2208836;59;2168;-80
2023/12/12 02:24:13;;;;;;;;;;;;;;;;;;2209214;59;1973;-78
2023/12/12 02:26:43;;;;;;;;;;;;;;;;;;2205420;59;2154;-78
2023/12/12 02:29:14;;;;;;;;;;;;;;;;;;2209659;59;1703;-79
2023/12/12 02:31:44;;;;;;;;;;;;;;;;;;2209612;59;2277;-79
2023/12/12 02:34:15;;;;;;;;;;;;;;;;;;2210188;59;2385;-78
2023/12/12 02:36:54;;;;;;;;;;;;;;;;;;2209354;59;2049;-78
2023/12/12 02:39:25;;;;;;;;;;;;;;;;;;2209453;59;3059;-78
2023/12/12 02:41:59;;;;;;;;;;;;;;;;;;2209228;59;2349;-78
2023/12/12 02:44:29;;;;;;;;;;;;;;;;;;2209520;59;2281;-78
2023/12/12 02:47:02;;;;;;;;;;;;;;;;;;2210873;59;1962;-80
2023/12/12 02:49:33;;;;;;;;;;;;;;;;;;2209873;59;1508;-78
2023/12/12 02:52:03;;;;;;;;;;;;;;;;;;2212814;59;2032;-78
2023/12/12 02:54:33;;;;;;;;;;;;;;;;;;2210285;63;1476;-78
2023/12/12 02:57:06;;;;;;;;;;;;;;;;;;2210124;59;2142;-78
2023/12/12 02:59:42;;;;;;;;;;;;;;;;;;2211470;59;1896;-78
2023/12/12 03:02:28;;;;;;;;;;;;;;;;;;;;;
2023/12/12 03:04:59;;;;;;;;;;;;;;;;;;2209231;59;2235;-79
2023/12/12 03:07:30;;;;;;;;;;;;;;;;;;2210648;59;2378;-78
2023/12/12 03:10:03;;;;;;;;;;;;;;;;;;2209453;59;2050;-78
2023/12/12 03:12:34;;;;;;;;;;;;;;;;;;2208960;59;2430;-78
2023/12/12 03:15:14;;;;;;;;;;;;;;;;;;2209139;59;2602;-78
2023/12/12 03:17:45;;;;;;;;;;;;;;;;;;2209842;59;1596;-77
2023/12/12 03:20:18;;;;;;;;;;;;;;;;;;2211015;59;2160;-82
2023/12/12 03:22:52;;;;;;;;;;;;;;;;;;2210545;59;1810;-78
2023/12/12 03:25:28;;;;;;;;;;;;;;;;;;2210808;59;2055;-78
2023/12/12 03:28:04;;;;;;;;;;;;;;;;;;2209684;59;1736;-79
2023/12/12 03:30:37;;;;;;;;;;;;;;;;;;2210293;59;2064;-78
2023/12/12 03:33:08;;;;;;;;;;;;;;;;;;2209784;59;2317;-79
2023/12/12 03:35:53;;;;;;;;;;;;;;;;;;2210215;59;2046;-78
2023/12/12 03:38:31;;;;;;;;;;;;;;;;;;2211399;59;1688;-79
2023/12/12 03:41:11;;;;;;;;;;;;;;;;;;2212456;59;1913;-78
2023/12/12 03:43:50;;;;;;;;;;;;;;;;;;2212434;59;1987;-78
2023/12/12 03:46:31;;;;;;;;;;;;;;;;;;2214489;59;1956;-78
2023/12/12 03:49:09;;;;;;;;;;;;;;;;;;2214246;59;1816;-78
2023/12/12 03:51:39;;;;;;;;;;;;;;;;;;2214991;59;1527;-78
2023/12/12 03:54:10;;;;;;;;;;;;;;;;;;2213802;59;2502;-78
2023/12/12 03:56:43;;;;;;;;;;;;;;;;;;2213492;59;2002;-80
2023/12/12 03:59:21;;;;;;;;;;;;;;;;;;2213908;59;2107;-79
2023/12/12 04:01:51;;;;;;;;;;;;;;;;;;2213568;59;1834;-80
2023/12/12 04:04:22;;;;;;;;;;;;;;;;;;2214461;59;1882;-79
2023/12/12 04:07:04;;;;;;;;;;;;;;;;;;2212771;59;1351;-80
2023/12/12 04:09:50;;;;;;;;;;;;;;;;;;2210524;59;2244;-78
2023/12/12 04:12:34;;;;;;;;;;;;;;;;;;2213528;67;2008;-78
2023/12/12 04:15:05;;;;;;;;;;;;;;;;;;2212475;59;2833;-78
2023/12/12 04:17:36;;;;;;;;;;;;;;;;;;2213749;59;1513;-78
2023/12/12 04:20:12;;;;;;;;;;;;;;;;;;2212501;59;2180;-78
2023/12/12 04:22:45;;;;;;;;;;;;;;;;;;2214394;59;1554;-81
2023/12/12 04:25:44;;;;;;;;;;;;;;;;;;2210688;59;2144;-79
2023/12/12 04:28:30;;;;;;;;;;;;;;;;;;2213393;59;2160;-79
2023/12/12 04:31:00;;;;;;;;;;;;;;;;;;2213434;59;2052;-82
2023/12/12 04:33:34;;;;;;;;;;;;;;;;;;2214166;59;1928;-77
2023/12/12 04:36:08;;;;;;;;;;;;;;;;;;2213337;59;2242;-79
2023/12/12 04:38:40;;;;;;;;;;;;;;;;;;2215595;66;1300;-79
2023/12/12 04:41:13;;;;;;;;;;;;;;;;;;2213963;67;1046;-79
2023/12/12 04:44:00;;;;;;;;;;;;;;;;;;2213990;59;1036;-78
2023/12/12 04:46:42;;;;;;;;;;;;;;;;;;2213461;66;1392;-79
2023/12/12 04:49:20;;;;;;;;;;;;;;;;;;2213040;59;1956;-79
2023/12/12 04:51:50;;;;;;;;;;;;;;;;;;2212062;67;1446;-78
2023/12/12 04:54:29;;;;;;;;;;;;;;;;;;2210310;59;2155;-78
2023/12/12 04:57:03;;;;;;;;;;;;;;;;;;2213185;67;1468;-79
2023/12/12 04:59:33;;;;;;;;;;;;;;;;;;2213174;59;2119;-78
2023/12/12 05:02:04;;;;;;;;;;;;;;;;;;2212940;59;1428;-80
2023/12/12 05:04:37;;;;;;;;;;;;;;;;;;2213483;59;1929;-78
2023/12/12 05:07:19;;;;;;;;;;;;;;;;;;2212507;59;1334;-80
2023/12/12 05:09:58;;;;;;;;;;;;;;;;;;2214184;59;1942;-80
2023/12/12 05:12:48;;;;;;;;;;;;;;;;;;2214651;67;1914;-78
2023/12/12 05:15:27;;;;;;;;;;;;;;;;;;2214117;59;2546;-78
2023/12/12 05:18:07;;;;;;;;;;;;;;;;;;2214055;59;2014;-78
2023/12/12 05:20:48;;;;;;;;;;;;;;;;;;2213625;59;1933;-78
2023/12/12 05:23:21;;;;;;;;;;;;;;;;;;2214013;59;1829;-79
2023/12/12 05:25:55;;;;;;;;;;;;;;;;;;2214393;59;2078;-80
2023/12/12 05:28:28;;;;;;;;;;;;;;;;;;2213205;59;1825;-80
2023/12/12 05:31:04;;;;;;;;;;;;;;;;;;2212662;59;2017;-80
2023/12/12 05:33:40;;;;;;;;;;;;;;;;;;2213363;59;1909;-78
2023/12/12 05:36:14;;;;;;;;;;;;;;;;;;2209422;67;1965;-78
2023/12/12 05:38:50;;;;;;;;;;;;;;;;;;2213185;59;2330;-78
2023/12/12 05:41:27;;;;;;;;;;;;;;;;;;2214018;59;1637;-79
2023/12/12 05:43:57;;;;;;;;;;;;;;;;;;2212156;59;2242;-78
2023/12/12 05:46:28;;;;;;;;;;;;;;;;;;2213040;59;1569;-80
2023/12/12 05:49:04;;;;;;;;;;;;;;;;;;2213062;59;2380;-78
2023/12/12 05:51:48;;;;;;;;;;;;;;;;;;2212759;59;2109;-80
2023/12/12 05:54:19;;;;;;;;;;;;;;;;;;2213251;59;2034;-79
2023/12/12 05:56:49;;;;;;;;;;;;;;;;;;2213117;67;1386;-78
2023/12/12 05:59:19;;;;;;;;;;;;;;;;;;2213104;59;1954;-79
2023/12/12 06:01:53;;;;;;;;;;;;;;;;;;2212963;59;1348;-79
2023/12/12 06:04:29;;;;;;;;;;;;;;;;;;2211963;59;2064;-78
2023/12/12 06:07:01;;;;;;;;;;;;;;;;;;2213610;59;1389;-78
2023/12/12 06:09:32;;;;;;;;;;;;;;;;;;2213422;59;2127;-78
2023/12/12 06:12:11;;;;;;;;;;;;;;;;;;2209827;67;1297;-78
2023/12/12 06:14:55;;;;;;;;;;;;;;;;;;2212740;59;2293;-78
2023/12/12 06:17:28;;;;;;;;;;;;;;;;;;2208718;59;2702;-78
2023/12/12 06:20:03;;;;;;;;;;;;;;;;;;2211437;67;2040;-79
2023/12/12 06:22:38;;;;;;;;;;;;;;;;;;2212406;59;2033;-79
2023/12/12 06:25:14;;;;;;;;;;;;;;;;;;2212249;59;2112;-79
2023/12/12 06:27:54;;;;;;;;;;;;;;;;;;2211554;59;2406;-78
2023/12/12 06:30:28;;;;;;;;;;;;;;;;;;2212296;59;1812;-78
2023/12/12 06:33:04;;;;;;;;;;;;;;;;;;2214754;59;2195;-79
2023/12/12 06:35:48;;;;;;;;;;;;;;;;;;2212939;59;1922;-79
2023/12/12 06:38:22;;;;;;;;;;;;;;;;;;2211249;59;2283;-78
2023/12/12 06:40:52;;;;;;;;;;;;;;;;;;2212466;59;2114;-79
2023/12/12 06:43:29;;;;;;;;;;;;;;;;;;2212042;59;1785;-79
2023/12/12 06:46:08;;;;;;;;;;;;;;;;;;2211750;59;1737;-78
2023/12/12 06:48:48;;;;;;;;;;;;;;;;;;2212649;59;2001;-78
2023/12/12 06:51:24;;;;;;;;;;;;;;;;;;2212874;59;1964;-78
2023/12/12 06:53:57;;;;;;;;;;;;;;;;;;2214200;59;2445;-78
2023/12/12 06:56:28;;;;;;;;;;;;;;;;;;2213617;59;1954;-78
2023/12/12 06:59:05;;;;;;;;;;;;;;;;;;2213503;59;2112;-79
2023/12/12 07:01:38;;;;;;;;;;;;;;;;;;2213316;59;1391;-78
2023/12/12 07:04:11;;;;;;;;;;;;;;;;;;2213450;59;1362;-78
2023/12/12 07:06:50;;;;;;;;;;;;;;;;;;2212983;59;2717;-78
2023/12/12 07:09:28;;;;;;;;;;;;;;;;;;2211082;59;1447;-78
2023/12/12 07:12:01;;;;;;;;;;;;;;;;;;2216401;59;2064;-79
2023/12/12 07:14:52;;;;;;;;;;;;;;;;;;2219421;59;1924;-79
2023/12/12 07:17:22;;;;;;;;;;;;;;;;;;2218624;59;2223;-78
2023/12/12 07:19:55;;;;;;;;;;;;;;;;;;2217895;59;1774;-78
2023/12/12 07:22:30;;;;;;;;;;;;;;;;;;2214251;59;2117;-79
2023/12/12 07:25:03;;;;;;;;;;;;;;;;;;2213275;59;2185;-78
2023/12/12 07:27:43;;;;;;;;;;;;;;;;;;2213450;59;2134;-78
2023/12/12 07:30:17;;;;;;;;;;;;;;;;;;2213267;67;1840;-78
2023/12/12 07:32:54;;;;;;;;;;;;;;;;;;2214505;59;2006;-78
2023/12/12 07:35:25;;;;;;;;;;;;;;;;;;2214059;59;1657;-78
2023/12/12 07:37:57;;;;;;;;;;;;;;;;;;2214181;59;2214;-78
2023/12/12 07:40:30;;;;;;;;;;;;;;;;;;2214294;59;1522;-78
2023/12/12 07:43:01;;;;;;;;;;;;;;;;;;2213939;59;2028;-78
2023/12/12 07:45:32;;;;;;;;;;;;;;;;;;2214305;59;1702;-79
2023/12/12 07:48:03;;;;;;;;;;;;;;;;;;2214413;59;2130;-79
2023/12/12 07:50:41;;;;;;;;;;;;;;;;;;2213786;59;2243;-78
2023/12/12 07:53:15;;;;;;;;;;;;;;;;;;2214183;59;1991;-79
2023/12/12 07:55:45;;;;;;;;;;;;;;;;;;2214492;59;2285;-78
2023/12/12 07:58:25;;;;;;;;;;;;;;;;;;2214913;59;1497;-78
2023/12/12 08:00:56;;;;;;;;;;;;;;;;;;2215353;59;2016;-78
2023/12/12 08:03:37;;;;;;;;;;;;;;;;;;2214624;59;1382;-78
2023/12/12 08:06:10;;;;;;;;;;;;;;;;;;2215019;59;2353;-78
2023/12/12 08:08:43;;;;;;;;;;;;;;;;;;2214810;67;1244;-78
2023/12/12 08:11:37;;;;;;;;;;;;;;;;;;2214163;59;1979;-79
2023/12/12 08:14:20;;;;;;;;;;;;;;;;;;2213992;59;1969;-79
2023/12/12 08:16:53;;;;;;;;;;;;;;;;;;2217638;66;2248;-79
2023/12/12 08:19:27;;;;;;;;;;;;;;;;;;2213856;59;2358;-78
2023/12/12 08:21:58;;;;;;;;;;;;;;;;;;2214547;59;2149;-78
2023/12/12 08:24:43;;;;;;;;;;;;;;;;;;2214139;67;1627;-79
2023/12/12 08:27:19;;;;;;;;;;;;;;;;;;2214807;59;2091;-78
2023/12/12 08:29:56;;;;;;;;;;;;;;;;;;2214426;67;1071;-81
2023/12/12 08:32:26;;;;;;;;;;;;;;;;;;2214307;59;2075;-79
2023/12/12 08:34:59;;;;;;;;;;;;;;;;;;2217562;59;1574;-79
2023/12/12 08:37:40;;;;;;;;;;;;;;;;;;2214467;67;1309;-79
2023/12/12 08:40:29;;;;;;;;;;;;;;;;;;2214705;59;2310;-78
2023/12/12 08:43:26;;;;;;;;;;;;;;;;;;;;;
2023/12/12 08:46:43;;;;;;;;;;;;;;;;;;2215977;59;2402;-78
2023/12/12 08:49:17;;;;;;;;;;;;;;;;;;2210910;59;1269;-78
2023/12/12 08:51:50;;;;;;;;;;;;;;;;;;2215128;59;2119;-78
2023/12/12 08:54:24;;;;;;;;;;;;;;;;;;2214351;59;2038;-78
2023/12/12 08:57:34;;;;;;;;;;;;;;;;;;;;;
2023/12/12 09:01:00;;;;;;;;;;;;;;;;;;;;;
2023/12/12 09:06:44;;;;;;;;;;;;;;;;;;2211901;59;2270;-80
2023/12/12 09:09:22;;;;;;;;;;;;;;;;;;2212989;59;2275;-78
2023/12/12 09:11:55;;;;;;;;;;;;;;;;;;2212057;59;1893;-78
2023/12/12 09:14:34;;;;;;;;;;;;;;;;;;2215985;66;1986;-78
2023/12/12 09:17:05;;;;;;;;;;;;;;;;;;2214909;59;2260;-78
2023/12/12 09:19:38;;;;;;;;;;;;;;;;;;2215070;59;2299;-78
2023/12/12 09:25:55;;;;;;;;;;;;;;;;;;2206947;67;1236;-79
2023/12/12 09:28:25;;;;;;;;;;;;;;;;;;2210145;59;2370;-78
2023/12/12 09:30:56;;;;;;;;;;;;;;;;;;2210833;67;1699;-79
2023/12/12 09:33:54;;;;;;;;;;;;;;;;;;2215222;67;2275;-77
2023/12/12 09:36:33;;;;;;;;;;;;;;;;;;2210353;59;2422;-78
2023/12/12 09:39:20;;;;;;;;;;;;;;;;;;2211524;59;2707;-78
2023/12/12 09:42:41;;;;;;;;;;;;;;;;;;2218339;59;2167;-78
2023/12/12 09:45:19;;;;;;;;;;;;;;;;;;2211815;59;2334;-80
2023/12/12 09:47:54;;;;;;;;;;;;;;;;;;2212587;59;1250;-79
2023/12/12 09:50:34;;;;;;;;;;;;;;;;;;2216236;59;3368;-79
2023/12/12 09:53:08;;;;;;;;;;;;;;;;;;2213297;59;1935;-79
2023/12/12 09:55:46;;;;;;;;;;;;;;;;;;2213805;67;1311;-79
2023/12/12 09:58:25;;;;;;;;;;;;;;;;;;2212187;59;2233;-81
2023/12/12 10:01:05;;;;;;;;;;;;;;;;;;2209801;67;2152;-79
2023/12/12 10:03:37;;;;;;;;;;;;;;;;;;2213099;59;2053;-78
2023/12/12 10:06:13;;;;;;;;;;;;;;;;;;2213240;59;2288;-84
2023/12/12 10:08:51;;;;;;;;;;;;;;;;;;2212364;59;2014;-79
2023/12/12 10:11:32;;;;;;;;;;;;;;;;;;2210991;59;2224;-78
2023/12/12 10:14:02;;;;;;;;;;;;;;;;;;2211002;59;2026;-78
2023/12/12 10:16:35;;;;;;;;;;;;;;;;;;2213003;67;1130;-81
2023/12/12 10:19:10;;;;;;;;;;;;;;;;;;2212411;59;2611;-79
2023/12/12 10:21:43;;;;;;;;;;;;;;;;;;2211500;59;2484;-78
2023/12/12 10:24:27;;;;;;;;;;;;;;;;;;2212742;59;1988;-83
2023/12/12 10:27:16;;;;;;;;;;;;;;;;;;2214546;59;2361;-79
2023/12/12 10:29:46;;;;;;;;;;;;;;;;;;2211219;59;2190;-79
2023/12/12 10:32:16;;;;;;;;;;;;;;;;;;2211305;59;2401;-81
2023/12/12 10:34:47;;;;;;;;;;;;;;;;;;2211448;59;2233;-80
2023/12/12 10:37:22;;;;;;;;;;;;;;;;;;2212321;59;1959;-79
2023/12/12 10:39:59;;;;;;;;;;;;;;;;;;2210602;59;2132;-79
2023/12/12 10:42:32;;;;;;;;;;;;;;;;;;2213408;59;1926;-79
2023/12/12 10:45:07;;;;;;;;;;;;;;;;;;2212054;59;1799;-80
2023/12/12 10:47:43;;;;;;;;;;;;;;;;;;2214792;59;2070;-80
2023/12/12 10:50:14;;;;;;;;;;;;;;;;;;2214257;59;1675;-79
2023/12/12 10:52:52;;;;;;;;;;;;;;;;;;2215786;59;1945;-84
2023/12/12 10:55:24;;;;;;;;;;;;;;;;;;2215556;59;1735;-79
2023/12/12 10:58:04;;;;;;;;;;;;;;;;;;2216514;59;2153;-80
2023/12/12 11:00:35;;;;;;;;;;;;;;;;;;2215128;59;1743;-80
2023/12/12 11:03:05;;;;;;;;;;;;;;;;;;2214690;59;1950;-80
2023/12/12 11:05:38;;;;;;;;;;;;;;;;;;2214553;59;1918;-79
2023/12/12 11:08:09;;;;;;;;;;;;;;;;;;2214680;59;1813;-79
2023/12/12 11:10:46;;;;;;;;;;;;;;;;;;2214058;59;1961;-80
2023/12/12 11:13:20;;;;;;;;;;;;;;;;;;2215551;59;4076;-80
2023/12/12 11:15:54;;;;;;;;;;;;;;;;;;2217231;59;2699;-81
2023/12/12 11:18:34;;;;;;;;;;;;;;;;;;2217005;59;1991;-81
2023/12/12 11:21:34;;;;;;;;;;;;;;;;;;2213824;59;2192;-82
2023/12/12 11:24:09;;;;;;;;;;;;;;;;;;2213972;59;2127;-81
2023/12/12 11:26:46;;;;;;;;;;;;;;;;;;2214932;67;1380;-80
2023/12/12 11:29:27;;;;;;;;;;;;;;;;;;2214883;59;2469;-83
2023/12/12 11:32:00;;;;;;;;;;;;;;;;;;2214927;59;2130;-80
2023/12/12 11:34:41;;;;;;;;;;;;;;;;;;2214443;67;1905;-79
2023/12/12 11:37:14;;;;;;;;;;;;;;;;;;2214590;59;2635;-82
2023/12/12 11:39:49;;;;;;;;;;;;;;;;;;2214205;59;1514;-82
2023/12/12 11:42:25;;;;;;;;;;;;;;;;;;2213272;59;2113;-83
2023/12/12 11:45:07;;;;;;;;;;;;;;;;;;2214037;59;2447;-80
2023/12/12 11:47:41;;;;;;;;;;;;;;;;;;2215174;67;1293;-84
2023/12/12 11:50:20;;;;;;;;;;;;;;;;;;2219196;59;2349;-83
2023/12/12 11:52:51;;;;;;;;;;;;;;;;;;2212367;67;1972;-85
2023/12/12 11:55:28;;;;;;;;;;;;;;;;;;2213635;59;2167;-83
2023/12/12 11:58:06;;;;;;;;;;;;;;;;;;2214131;59;1275;-80
2023/12/12 12:00:45;;;;;;;;;;;;;;;;;;2215922;59;1124;-82
2023/12/12 12:03:24;;;;;;;;;;;;;;;;;;2215800;59;2469;-82
2023/12/12 12:06:06;;;;;;;;;;;;;;;;;;2216872;59;1801;-81
2023/12/12 12:08:53;;;;;;;;;;;;;;;;;;2218622;59;2011;-82
2023/12/12 12:11:35;;;;;;;;;;;;;;;;;;2217104;59;2127;-81
2023/12/12 12:14:17;;;;;;;;;;;;;;;;;;2216536;59;1988;-79
2023/12/12 12:16:53;;;;;;;;;;;;;;;;;;2216413;67;1135;-80
2023/12/12 12:19:31;;;;;;;;;;;;;;;;;;2217081;59;2490;-81
2023/12/12 12:22:15;;;;;;;;;;;;;;;;;;2215262;59;2969;-80
2023/12/12 12:25:17;;;;;;;;;;;;;;;;;;2218217;59;2010;-80
2023/12/12 12:28:10;;;;;;;;;;;;;;;;;;2220140;59;1832;-79
2023/12/12 12:31:16;;;;;;;;;;;;;;;;;;2219042;66;1857;-80
2023/12/12 12:34:28;;;;;;;;;;;;;;;;;;2214731;67;1959;-80
2023/12/12 12:36:42;;;;;;;;;;;;;;;;;;2215763;59;2128;-80
2023/12/12 12:39:18;;;;;;;;;;;;;;;;;;2216422;59;2253;-80
2023/12/12 12:41:58;;;;;;;;;;;;;;;;;;2216601;59;2101;-80
2023/12/12 12:44:33;;;;;;;;;;;;;;;;;;2215636;67;1048;-80
2023/12/12 12:47:22;;;;;;;;;;;;;;;;;;;;;
2023/12/12 12:50:07;;;;;;;;;;;;;;;;;;2215987;59;2640;-79
2023/12/12 12:52:41;;;;;;;;;;;;;;;;;;2218343;59;1935;-80
2023/12/12 12:55:11;;;;;;;;;;;;;;;;;;2217527;59;2236;-80
2023/12/12 12:57:51;;;;;;;;;;;;;;;;;;2221281;66;1291;-80
2023/12/12 13:00:22;;;;;;;;;;;;;;;;;;2219382;59;1143;-79
2023/12/12 13:02:58;;;;;;;;;;;;;;;;;;2216943;59;2608;-79
2023/12/12 13:05:39;;;;;;;;;;;;;;;;;;2216299;59;1113;-82
2023/12/12 13:08:12;;;;;;;;;;;;;;;;;;2217649;59;1990;-83
2023/12/12 13:10:43;;;;;;;;;;;;;;;;;;2219758;59;1454;-79
2023/12/12 13:13:16;;;;;;;;;;;;;;;;;;2215712;59;1957;-79
2023/12/12 13:16:05;;;;;;;;;;;;;;;;;;2212879;59;1421;-80
2023/12/12 13:19:09;;;;;;;;;;;;;;;;;;2219775;59;2230;-80
2023/12/12 13:21:43;;;;;;;;;;;;;;;;;;2215249;59;2098;-80
2023/12/12 13:24:14;;;;;;;;;;;;;;;;;;2218117;59;2410;-82
2023/12/12 13:26:54;;;;;;;;;;;;;;;;;;2215843;58;1971;-80
2023/12/12 13:29:32;;;;;;;;;;;;;;;;;;2214280;59;1779;-81
2023/12/12 13:32:09;;;;;;;;;;;;;;;;;;2216957;59;2354;-80
2023/12/12 13:34:54;;;;;;;;;;;;;;;;;;2214499;59;1994;-79
2023/12/12 13:37:24;;;;;;;;;;;;;;;;;;2215426;59;2128;-80
2023/12/12 13:40:03;;;;;;;;;;;;;;;;;;2218083;59;1936;-79
2023/12/12 13:42:39;;;;;;;;;;;;;;;;;;2215102;59;2102;-79
2023/12/12 13:45:12;;;;;;;;;;;;;;;;;;2214724;59;1929;-79
2023/12/12 13:47:45;;;;;;;;;;;;;;;;;;2216994;59;1901;-78
2023/12/12 13:50:43;;;;;;;;;;;;;;;;;;2212499;59;1490;-84
2023/12/12 13:53:13;;;;;;;;;;;;;;;;;;2219213;59;2298;-84
2023/12/12 13:55:49;;;;;;;;;;;;;;;;;;2219047;58;2212;-82
2023/12/12 13:58:40;;;;;;;;;;;;;;;;;;2215626;59;2539;-85
2023/12/12 14:01:22;;;;;;;;;;;;;;;;;;2215592;59;2048;-80
2023/12/12 14:04:05;;;;;;;;;;;;;;;;;;2220637;59;2334;-81
2023/12/12 14:06:44;;;;;;;;;;;;;;;;;;2216682;59;2355;-80
2023/12/12 14:09:17;;;;;;;;;;;;;;;;;;2217208;59;2396;-81
2023/12/12 14:11:54;;;;;;;;;;;;;;;;;;2220275;58;1832;-82
2023/12/12 14:14:27;;;;;;;;;;;;;;;;;;2218634;59;2060;-81
2023/12/12 14:17:14;;;;;;;;;;;;;;;;;;;;;
2023/12/12 14:19:48;;;;;;;;;;;;;;;;;;2219401;59;2124;-80
2023/12/12 14:22:21;;;;;;;;;;;;;;;;;;2216717;59;2359;-80
2023/12/12 14:25:14;;;;;;;;;;;;;;;;;;2217446;59;2435;-82
2023/12/12 14:27:51;;;;;;;;;;;;;;;;;;2219854;59;2079;-81
2023/12/12 14:30:29;;;;;;;;;;;;;;;;;;2221633;59;4407;-81
2023/12/12 14:33:03;;;;;;;;;;;;;;;;;;2219197;59;2439;-80
2023/12/12 14:35:38;;;;;;;;;;;;;;;;;;2217698;67;1604;-82
2023/12/12 14:38:19;;;;;;;;;;;;;;;;;;2218799;59;2239;-81
2023/12/12 14:40:50;;;;;;;;;;;;;;;;;;2218976;59;2771;-17
2023/12/12 14:43:20;;;;;;;;;;;;;;;;;;2211906;58;2687;-22
2023/12/12 14:45:51;;;;;;;;;;;;;;;;;;2214800;58;2437;-22
2023/12/12 14:48:21;;;;;;;;;;;;;;;;;;2212585;58;2279;-17
2023/12/12 14:50:51;;;;;;;;;;;;;;;;;;2214482;58;2100;-17
2023/12/12 14:53:22;;;;;;;;;;;;;;;;;;2213102;58;2006;-17
2023/12/12 14:55:53;;;;;;;;;;;;;;;;;;2213948;58;2750;-21
2023/12/12 14:58:23;;;;;;;;;;;;;;;;;;2212534;58;2361;-18
2023/12/12 15:00:53;;;;;;;;;;;;;;;;;;2213455;58;2303;-21
2023/12/12 15:03:24;;;;;;;;;;;;;;;;;;2213437;58;2317;-21
2023/12/12 15:05:54;;;;;;;;;;;;;;;;;;2214337;58;2445;-21
2023/12/12 15:08:25;;;;;;;;;;;;;;;;;;2212910;58;1745;-21
2023/12/12 15:10:55;;;;;;;;;;;;;;;;;;2214126;58;2383;-17
2023/12/12 15:13:26;;;;;;;;;;;;;;;;;;2213369;58;2230;-18
2023/12/12 15:15:56;;;;;;;;;;;;;;;;;;2214421;58;2753;-21
2023/12/12 15:18:26;;;;;;;;;;;;;;;;;;2212856;58;3377;-18
2023/12/12 15:20:57;;;;;;;;;;;;;;;;;;2214545;58;2656;-18
2023/12/12 15:23:27;;;;;;;;;;;;;;;;;;2213618;58;2460;-23
2023/12/12 15:25:58;;;;;;;;;;;;;;;;;;2214172;58;2756;-21
2023/12/12 15:28:28;;;;;;;;;;;;;;;;;;2213200;58;2502;-21
2023/12/12 15:30:58;;;;;;;;;;;;;;;;;;2213942;58;2226;-18
2023/12/12 15:33:29;;;;;;;;;;;;;;;;;;2213586;58;2830;-19
2023/12/12 15:36:05;;;;;;;;;;;;;;;;;;2215176;58;3038;-19
2023/12/12 15:38:36;;;;;;;;;;;;;;;;;;2213487;58;2001;-23
2023/12/12 15:41:06;;;;;;;;;;;;;;;;;;2213759;58;2601;-22
2023/12/12 15:43:37;;;;;;;;;;;;;;;;;;2213749;58;2479;-18
2023/12/12 15:46:07;;;;;;;;;;;;;;;;;;2214623;59;2410;-22
2023/12/12 15:48:37;;;;;;;;;;;;;;;;;;2213116;58;2160;-17
2023/12/12 15:51:08;;;;;;;;;;;;;;;;;;2213273;58;2110;-22
2023/12/12 15:53:38;;;;;;;;;;;;;;;;;;2213618;58;2241;-20
2023/12/12 15:56:09;;;;;;;;;;;;;;;;;;2214633;58;1904;-18
2023/12/12 15:58:39;;;;;;;;;;;;;;;;;;2214282;58;2200;-18
2023/12/12 16:01:10;;;;;;;;;;;;;;;;;;2214549;58;2049;-21
2023/12/12 16:03:41;;;;;;;;;;;;;;;;;;2214122;58;1736;-21
2023/12/12 16:06:13;;;;;;;;;;;;;;;;;;2213945;58;2693;-21
2023/12/12 16:08:44;;;;;;;;;;;;;;;;;;2213120;66;2481;-21
2023/12/12 16:11:15;;;;;;;;;;;;;;;;;;2214643;58;2228;-21
2023/12/12 16:13:46;;;;;;;;;;;;;;;;;;2213082;58;2349;-22
2023/12/12 16:16:17;;;;;;;;;;;;;;;;;;2212957;58;2679;-17
2023/12/12 16:18:47;;;;;;;;;;;;;;;;;;2213484;58;2028;-22
2023/12/12 16:21:17;;;;;;;;;;;;;;;;;;2214430;58;2444;-17
2023/12/12 16:23:47;;;;;;;;;;;;;;;;;;2213389;58;1672;-17
2023/12/12 16:26:18;;;;;;;;;;;;;;;;;;2213364;58;2179;-21
2023/12/12 16:28:49;;;;;;;;;;;;;;;;;;2213772;58;2854;-18
2023/12/12 16:31:20;;;;;;;;;;;;;;;;;;2213469;58;2257;-21
2023/12/12 16:33:50;;;;;;;;;;;;;;;;;;2210368;58;1974;-17
2023/12/12 16:36:21;;;;;;;;;;;;;;;;;;2213573;58;2464;-17
2023/12/12 16:38:56;;;;;;;;;;;;;;;;;;2212720;58;2338;-20
2023/12/12 16:41:27;;;;;;;;;;;;;;;;;;2213102;58;2314;-17
2023/12/12 16:43:57;;;;;;;;;;;;;;;;;;2214464;58;2424;-18
2023/12/12 16:46:29;;;;;;;;;;;;;;;;;;2213003;58;2699;-22
2023/12/12 16:49:00;;;;;;;;;;;;;;;;;;2214193;59;2194;-20
2023/12/12 16:51:31;;;;;;;;;;;;;;;;;;2212182;66;1798;-20
2023/12/12 16:54:01;;;;;;;;;;;;;;;;;;2214150;58;2328;-17
2023/12/12 16:56:31;;;;;;;;;;;;;;;;;;2213278;58;2353;-17
2023/12/12 16:59:04;;;;;;;;;;;;;;;;;;2214297;58;2742;-17
2023/12/12 17:01:34;;;;;;;;;;;;;;;;;;2212540;58;2617;-17
2023/12/12 17:04:04;;;;;;;;;;;;;;;;;;2214600;58;2126;-20
2023/12/12 17:06:35;;;;;;;;;;;;;;;;;;2213541;58;2610;-17
2023/12/12 17:09:08;;;;;;;;;;;;;;;;;;2214708;58;2419;-19
2023/12/12 17:11:38;;;;;;;;;;;;;;;;;;2213415;58;2158;-20
2023/12/12 17:14:09;;;;;;;;;;;;;;;;;;2216585;58;1959;-20
2023/12/12 17:16:40;;;;;;;;;;;;;;;;;;2213836;66;1794;-21
2023/12/12 17:19:10;;;;;;;;;;;;;;;;;;2214155;58;2185;-17
2023/12/12 17:21:40;;;;;;;;;;;;;;;;;;2211618;58;2380;-19
2023/12/12 17:24:11;;;;;;;;;;;;;;;;;;2214646;58;2046;-18
2023/12/12 17:26:41;;;;;;;;;;;;;;;;;;2213348;58;2245;-17
2023/12/12 17:29:11;;;;;;;;;;;;;;;;;;2214113;58;3566;-17
2023/12/12 17:31:43;;;;;;;;;;;;;;;;;;2213559;58;2076;-19
2023/12/12 17:34:14;;;;;;;;;;;;;;;;;;2213293;58;2449;-21
2023/12/12 17:36:46;;;;;;;;;;;;;;;;;;2213670;59;2387;-19
2023/12/12 17:39:17;;;;;;;;;;;;;;;;;;2211539;66;2400;-16
2023/12/12 17:41:48;;;;;;;;;;;;;;;;;;2213135;58;2243;-17
2023/12/12 17:44:18;;;;;;;;;;;;;;;;;;2213562;58;4033;-19
2023/12/12 17:46:48;;;;;;;;;;;;;;;;;;2213929;58;1838;-20
2023/12/12 17:49:19;;;;;;;;;;;;;;;;;;2213921;58;2325;-21
2023/12/12 17:51:49;;;;;;;;;;;;;;;;;;2213704;58;2288;-21
2023/12/12 17:54:19;;;;;;;;;;;;;;;;;;2213832;58;2118;-22
2023/12/12 17:56:53;;;;;;;;;;;;;;;;;;2212637;58;1900;-20
2023/12/12 17:59:23;;;;;;;;;;;;;;;;;;2210094;58;2592;-20
2023/12/12 18:01:54;;;;;;;;;;;;;;;;;;2212567;58;1831;-17
2023/12/12 18:04:24;;;;;;;;;;;;;;;;;;2214862;58;2729;-17
2023/12/12 18:06:58;;;;;;;;;;;;;;;;;;2213511;58;2387;-17
2023/12/12 18:09:29;;;;;;;;;;;;;;;;;;2212628;58;2388;-16
2023/12/12 18:12:00;;;;;;;;;;;;;;;;;;2213706;58;2830;-21